sensor_id;sensor_type;location;lat;lon;timestamp;P1;durP1;ratioP1;P2;durP2;ratioP2
28009;SDS011;15334;49.494;8.410;2023-03-17T00:01:23;7.65;;;3.20;;
28009;SDS011;15334;49.494;8.410;2023-03-17T00:03:51;8.30;;;3.22;;
28009;SDS011;15334;49.494;8.410;2023-03-17T00:06:22;6.47;;;3.13;;
28009;SDS011;15334;49.494;8.410;2023-03-17T00:09:14;6.57;;;3.33;;
28009;SDS011;15334;49.494;8.410;2023-03-17T00:11:45;9.57;;;2.92;;
28009;SDS011;15334;49.494;8.410;2023-03-17T00:14:14;6.22;;;3.47;;
28009;SDS011;15334;49.494;8.410;2023-03-17T00:16:42;8.25;;;3.13;;
28009;SDS011;15334;49.494;8.410;2023-03-17T00:19:13;7.90;;;3.60;;
28009;SDS011;15334;49.494;8.410;2023-03-17T00:21:43;5.13;;;3.00;;
28009;SDS011;15334;49.494;8.410;2023-03-17T00:24:13;8.05;;;3.38;;
28009;SDS011;15334;49.494;8.410;2023-03-17T00:26:42;7.38;;;3.22;;
28009;SDS011;15334;49.494;8.410;2023-03-17T00:29:10;6.75;;;3.38;;
28009;SDS011;15334;49.494;8.410;2023-03-17T00:31:38;9.80;;;3.70;;
28009;SDS011;15334;49.494;8.410;2023-03-17T00:34:08;9.20;;;3.38;;
28009;SDS011;15334;49.494;8.410;2023-03-17T00:36:39;6.75;;;3.10;;
28009;SDS011;15334;49.494;8.410;2023-03-17T00:39:10;7.03;;;3.70;;
28009;SDS011;15334;49.494;8.410;2023-03-17T00:41:44;6.97;;;3.65;;
28009;SDS011;15334;49.494;8.410;2023-03-17T00:46:43;8.27;;;3.58;;
28009;SDS011;15334;49.494;8.410;2023-03-17T00:49:13;8.23;;;3.85;;
28009;SDS011;15334;49.494;8.410;2023-03-17T00:51:45;9.30;;;3.25;;
28009;SDS011;15334;49.494;8.410;2023-03-17T00:54:15;7.63;;;3.70;;
28009;SDS011;15334;49.494;8.410;2023-03-17T00:56:45;7.53;;;3.90;;
28009;SDS011;15334;49.494;8.410;2023-03-17T00:59:17;9.15;;;5.25;;
28009;SDS011;15334;49.494;8.410;2023-03-17T01:01:47;9.48;;;4.03;;
28009;SDS011;15334;49.494;8.410;2023-03-17T01:04:16;10.40;;;4.63;;
28009;SDS011;15334;49.494;8.410;2023-03-17T01:06:44;8.50;;;4.60;;
28009;SDS011;15334;49.494;8.410;2023-03-17T01:09:13;9.85;;;4.78;;
28009;SDS011;15334;49.494;8.410;2023-03-17T01:11:45;9.55;;;4.45;;
28009;SDS011;15334;49.494;8.410;2023-03-17T01:14:13;10.82;;;4.90;;
28009;SDS011;15334;49.494;8.410;2023-03-17T01:16:42;7.70;;;4.13;;
28009;SDS011;15334;49.494;8.410;2023-03-17T01:19:11;7.43;;;3.90;;
28009;SDS011;15334;49.494;8.410;2023-03-17T01:21:39;9.00;;;3.60;;
28009;SDS011;15334;49.494;8.410;2023-03-17T01:24:07;9.20;;;4.43;;
28009;SDS011;15334;49.494;8.410;2023-03-17T01:26:36;10.38;;;4.18;;
28009;SDS011;15334;49.494;8.410;2023-03-17T01:29:05;7.53;;;3.90;;
28009;SDS011;15334;49.494;8.410;2023-03-17T01:31:34;6.85;;;4.10;;
28009;SDS011;15334;49.494;8.410;2023-03-17T01:34:02;9.65;;;4.32;;
28009;SDS011;15334;49.494;8.410;2023-03-17T01:36:31;9.50;;;4.10;;
28009;SDS011;15334;49.494;8.410;2023-03-17T01:38:59;9.75;;;3.92;;
28009;SDS011;15334;49.494;8.410;2023-03-17T01:41:31;8.20;;;3.80;;
28009;SDS011;15334;49.494;8.410;2023-03-17T01:43:59;11.68;;;4.90;;
28009;SDS011;15334;49.494;8.410;2023-03-17T01:46:29;9.20;;;4.03;;
28009;SDS011;15334;49.494;8.410;2023-03-17T01:49:05;7.65;;;3.47;;
28009;SDS011;15334;49.494;8.410;2023-03-17T01:51:37;7.47;;;3.80;;
28009;SDS011;15334;49.494;8.410;2023-03-17T01:54:13;7.72;;;4.03;;
28009;SDS011;15334;49.494;8.410;2023-03-17T01:56:44;9.75;;;3.90;;
28009;SDS011;15334;49.494;8.410;2023-03-17T01:59:16;8.10;;;4.15;;
28009;SDS011;15334;49.494;8.410;2023-03-17T02:01:48;7.05;;;3.95;;
28009;SDS011;15334;49.494;8.410;2023-03-17T02:04:18;7.00;;;4.18;;
28009;SDS011;15334;49.494;8.410;2023-03-17T02:06:47;11.18;;;4.28;;
28009;SDS011;15334;49.494;8.410;2023-03-17T02:09:24;9.88;;;4.95;;
28009;SDS011;15334;49.494;8.410;2023-03-17T02:11:53;13.70;;;5.13;;
28009;SDS011;15334;49.494;8.410;2023-03-17T02:14:22;8.20;;;4.95;;
28009;SDS011;15334;49.494;8.410;2023-03-17T02:16:52;10.55;;;4.72;;
28009;SDS011;15334;49.494;8.410;2023-03-17T02:19:20;9.45;;;4.95;;
28009;SDS011;15334;49.494;8.410;2023-03-17T02:21:50;11.68;;;4.45;;
28009;SDS011;15334;49.494;8.410;2023-03-17T02:24:24;8.20;;;4.13;;
28009;SDS011;15334;49.494;8.410;2023-03-17T02:26:59;10.88;;;4.90;;
28009;SDS011;15334;49.494;8.410;2023-03-17T02:29:31;8.80;;;4.60;;
28009;SDS011;15334;49.494;8.410;2023-03-17T02:32:01;14.13;;;5.15;;
28009;SDS011;15334;49.494;8.410;2023-03-17T02:34:29;10.48;;;5.03;;
28009;SDS011;15334;49.494;8.410;2023-03-17T02:36:59;9.15;;;5.20;;
28009;SDS011;15334;49.494;8.410;2023-03-17T02:39:27;11.52;;;5.00;;
28009;SDS011;15334;49.494;8.410;2023-03-17T02:41:55;9.52;;;5.18;;
28009;SDS011;15334;49.494;8.410;2023-03-17T02:44:23;8.82;;;4.40;;
28009;SDS011;15334;49.494;8.410;2023-03-17T02:46:51;8.85;;;4.43;;
28009;SDS011;15334;49.494;8.410;2023-03-17T02:49:19;8.93;;;4.03;;
28009;SDS011;15334;49.494;8.410;2023-03-17T02:51:47;10.07;;;4.40;;
28009;SDS011;15334;49.494;8.410;2023-03-17T02:54:17;12.70;;;4.70;;
28009;SDS011;15334;49.494;8.410;2023-03-17T02:56:45;9.27;;;4.65;;
28009;SDS011;15334;49.494;8.410;2023-03-17T02:59:13;10.63;;;5.40;;
28009;SDS011;15334;49.494;8.410;2023-03-17T03:01:41;8.18;;;4.60;;
28009;SDS011;15334;49.494;8.410;2023-03-17T03:04:09;12.73;;;4.93;;
28009;SDS011;15334;49.494;8.410;2023-03-17T03:06:38;10.68;;;4.57;;
28009;SDS011;15334;49.494;8.410;2023-03-17T03:09:07;13.18;;;4.68;;
28009;SDS011;15334;49.494;8.410;2023-03-17T03:11:38;10.07;;;4.70;;
28009;SDS011;15334;49.494;8.410;2023-03-17T03:14:06;7.75;;;4.47;;
28009;SDS011;15334;49.494;8.410;2023-03-17T03:16:38;9.57;;;4.90;;
28009;SDS011;15334;49.494;8.410;2023-03-17T03:19:13;9.65;;;4.55;;
28009;SDS011;15334;49.494;8.410;2023-03-17T03:21:48;10.23;;;4.20;;
28009;SDS011;15334;49.494;8.410;2023-03-17T03:24:16;12.32;;;5.15;;
28009;SDS011;15334;49.494;8.410;2023-03-17T03:26:46;8.35;;;4.10;;
28009;SDS011;15334;49.494;8.410;2023-03-17T03:29:14;12.98;;;5.07;;
28009;SDS011;15334;49.494;8.410;2023-03-17T03:31:42;11.05;;;4.60;;
28009;SDS011;15334;49.494;8.410;2023-03-17T03:34:10;12.50;;;5.20;;
28009;SDS011;15334;49.494;8.410;2023-03-17T03:36:38;8.63;;;4.95;;
28009;SDS011;15334;49.494;8.410;2023-03-17T03:39:07;9.30;;;4.63;;
28009;SDS011;15334;49.494;8.410;2023-03-17T03:41:36;12.45;;;5.10;;
28009;SDS011;15334;49.494;8.410;2023-03-17T03:44:12;9.30;;;4.53;;
28009;SDS011;15334;49.494;8.410;2023-03-17T03:46:42;10.57;;;5.10;;
28009;SDS011;15334;49.494;8.410;2023-03-17T03:49:11;9.88;;;4.57;;
28009;SDS011;15334;49.494;8.410;2023-03-17T03:51:39;10.02;;;4.80;;
28009;SDS011;15334;49.494;8.410;2023-03-17T03:54:13;12.77;;;4.80;;
28009;SDS011;15334;49.494;8.410;2023-03-17T03:56:41;10.63;;;5.50;;
28009;SDS011;15334;49.494;8.410;2023-03-17T03:59:09;10.13;;;5.18;;
28009;SDS011;15334;49.494;8.410;2023-03-17T04:01:39;11.00;;;4.85;;
28009;SDS011;15334;49.494;8.410;2023-03-17T04:04:07;9.02;;;4.97;;
28009;SDS011;15334;49.494;8.410;2023-03-17T04:06:35;11.38;;;5.40;;
28009;SDS011;15334;49.494;8.410;2023-03-17T04:09:03;12.70;;;5.32;;
28009;SDS011;15334;49.494;8.410;2023-03-17T04:11:31;12.10;;;5.20;;
28009;SDS011;15334;49.494;8.410;2023-03-17T04:13:59;11.98;;;5.50;;
28009;SDS011;15334;49.494;8.410;2023-03-17T04:16:28;10.77;;;5.15;;
28009;SDS011;15334;49.494;8.410;2023-03-17T04:18:57;10.88;;;5.10;;
28009;SDS011;15334;49.494;8.410;2023-03-17T04:21:25;15.90;;;5.82;;
28009;SDS011;15334;49.494;8.410;2023-03-17T04:23:53;12.18;;;5.93;;
28009;SDS011;15334;49.494;8.410;2023-03-17T04:26:22;15.27;;;4.97;;
28009;SDS011;15334;49.494;8.410;2023-03-17T04:28:55;9.75;;;5.53;;
28009;SDS011;15334;49.494;8.410;2023-03-17T04:31:24;9.13;;;5.20;;
28009;SDS011;15334;49.494;8.410;2023-03-17T04:33:52;9.88;;;5.38;;
28009;SDS011;15334;49.494;8.410;2023-03-17T04:36:22;14.85;;;6.35;;
28009;SDS011;15334;49.494;8.410;2023-03-17T04:38:51;11.05;;;5.50;;
28009;SDS011;15334;49.494;8.410;2023-03-17T04:41:19;12.90;;;6.68;;
28009;SDS011;15334;49.494;8.410;2023-03-17T04:43:47;11.85;;;5.30;;
28009;SDS011;15334;49.494;8.410;2023-03-17T04:46:15;13.70;;;5.78;;
28009;SDS011;15334;49.494;8.410;2023-03-17T04:48:43;15.77;;;5.93;;
28009;SDS011;15334;49.494;8.410;2023-03-17T04:51:11;9.93;;;5.70;;
28009;SDS011;15334;49.494;8.410;2023-03-17T04:53:40;11.63;;;5.82;;
28009;SDS011;15334;49.494;8.410;2023-03-17T04:56:10;12.48;;;6.75;;
28009;SDS011;15334;49.494;8.410;2023-03-17T04:58:38;15.07;;;6.55;;
28009;SDS011;15334;49.494;8.410;2023-03-17T05:01:06;11.70;;;6.15;;
28009;SDS011;15334;49.494;8.410;2023-03-17T05:03:35;14.00;;;6.55;;
28009;SDS011;15334;49.494;8.410;2023-03-17T05:06:03;11.27;;;6.10;;
28009;SDS011;15334;49.494;8.410;2023-03-17T05:08:32;16.35;;;6.75;;
28009;SDS011;15334;49.494;8.410;2023-03-17T05:11:01;13.23;;;6.25;;
28009;SDS011;15334;49.494;8.410;2023-03-17T05:13:30;11.43;;;5.63;;
28009;SDS011;15334;49.494;8.410;2023-03-17T05:16:06;12.15;;;5.72;;
28009;SDS011;15334;49.494;8.410;2023-03-17T05:18:35;12.52;;;5.95;;
28009;SDS011;15334;49.494;8.410;2023-03-17T05:21:04;10.90;;;5.60;;
28009;SDS011;15334;49.494;8.410;2023-03-17T05:23:32;10.60;;;5.75;;
28009;SDS011;15334;49.494;8.410;2023-03-17T05:26:02;12.23;;;6.60;;
28009;SDS011;15334;49.494;8.410;2023-03-17T05:28:31;12.50;;;6.80;;
28009;SDS011;15334;49.494;8.410;2023-03-17T05:30:59;13.70;;;6.22;;
28009;SDS011;15334;49.494;8.410;2023-03-17T05:33:28;16.13;;;6.75;;
28009;SDS011;15334;49.494;8.410;2023-03-17T05:35:59;11.13;;;6.07;;
28009;SDS011;15334;49.494;8.410;2023-03-17T05:38:27;12.57;;;6.05;;
28009;SDS011;15334;49.494;8.410;2023-03-17T05:40:55;13.65;;;6.28;;
28009;SDS011;15334;49.494;8.410;2023-03-17T05:43:26;16.27;;;7.05;;
28009;SDS011;15334;49.494;8.410;2023-03-17T05:45:54;10.93;;;6.15;;
28009;SDS011;15334;49.494;8.410;2023-03-17T05:48:22;13.82;;;7.18;;
28009;SDS011;15334;49.494;8.410;2023-03-17T05:50:51;13.70;;;6.70;;
28009;SDS011;15334;49.494;8.410;2023-03-17T05:53:19;13.45;;;6.20;;
28009;SDS011;15334;49.494;8.410;2023-03-17T05:55:48;15.02;;;6.90;;
28009;SDS011;15334;49.494;8.410;2023-03-17T05:58:20;13.30;;;6.40;;
28009;SDS011;15334;49.494;8.410;2023-03-17T06:00:50;20.10;;;8.45;;
28009;SDS011;15334;49.494;8.410;2023-03-17T06:03:18;15.73;;;7.55;;
28009;SDS011;15334;49.494;8.410;2023-03-17T06:05:47;22.45;;;7.88;;
28009;SDS011;15334;49.494;8.410;2023-03-17T06:08:15;15.05;;;8.18;;
28009;SDS011;15334;49.494;8.410;2023-03-17T06:10:43;15.45;;;7.03;;
28009;SDS011;15334;49.494;8.410;2023-03-17T06:13:11;14.57;;;7.40;;
28009;SDS011;15334;49.494;8.410;2023-03-17T06:15:39;11.98;;;6.00;;
28009;SDS011;15334;49.494;8.410;2023-03-17T06:18:09;15.88;;;7.88;;
28009;SDS011;15334;49.494;8.410;2023-03-17T06:20:38;17.23;;;7.10;;
28009;SDS011;15334;49.494;8.410;2023-03-17T06:23:06;14.32;;;7.03;;
28009;SDS011;15334;49.494;8.410;2023-03-17T06:25:34;19.55;;;8.65;;
28009;SDS011;15334;49.494;8.410;2023-03-17T06:28:03;17.77;;;8.32;;
28009;SDS011;15334;49.494;8.410;2023-03-17T06:30:34;17.77;;;7.97;;
28009;SDS011;15334;49.494;8.410;2023-03-17T06:33:06;14.07;;;7.70;;
28009;SDS011;15334;49.494;8.410;2023-03-17T06:35:36;14.10;;;7.03;;
28009;SDS011;15334;49.494;8.410;2023-03-17T06:38:04;13.80;;;7.38;;
28009;SDS011;15334;49.494;8.410;2023-03-17T06:40:32;12.30;;;6.43;;
28009;SDS011;15334;49.494;8.410;2023-03-17T06:43:06;11.90;;;5.18;;
28009;SDS011;15334;49.494;8.410;2023-03-17T06:45:34;13.20;;;6.90;;
28009;SDS011;15334;49.494;8.410;2023-03-17T06:48:02;14.13;;;7.32;;
28009;SDS011;15334;49.494;8.410;2023-03-17T06:50:32;14.68;;;7.13;;
28009;SDS011;15334;49.494;8.410;2023-03-17T06:53:01;16.95;;;7.88;;
28009;SDS011;15334;49.494;8.410;2023-03-17T06:55:30;24.08;;;8.25;;
28009;SDS011;15334;49.494;8.410;2023-03-17T06:57:59;19.85;;;8.70;;
28009;SDS011;15334;49.494;8.410;2023-03-17T07:00:28;18.27;;;8.45;;
28009;SDS011;15334;49.494;8.410;2023-03-17T07:02:56;16.15;;;7.10;;
28009;SDS011;15334;49.494;8.410;2023-03-17T07:05:24;16.73;;;7.57;;
28009;SDS011;15334;49.494;8.410;2023-03-17T07:07:53;17.38;;;7.57;;
28009;SDS011;15334;49.494;8.410;2023-03-17T07:10:22;14.38;;;7.15;;
28009;SDS011;15334;49.494;8.410;2023-03-17T07:12:53;16.45;;;6.63;;
28009;SDS011;15334;49.494;8.410;2023-03-17T07:15:21;16.25;;;6.97;;
28009;SDS011;15334;49.494;8.410;2023-03-17T07:17:49;14.85;;;6.32;;
28009;SDS011;15334;49.494;8.410;2023-03-17T07:20:17;15.93;;;7.18;;
28009;SDS011;15334;49.494;8.410;2023-03-17T07:22:46;15.13;;;7.00;;
28009;SDS011;15334;49.494;8.410;2023-03-17T07:25:14;13.70;;;6.32;;
28009;SDS011;15334;49.494;8.410;2023-03-17T07:27:44;11.55;;;5.40;;
28009;SDS011;15334;49.494;8.410;2023-03-17T07:30:12;12.23;;;6.30;;
28009;SDS011;15334;49.494;8.410;2023-03-17T07:32:44;9.95;;;5.68;;
28009;SDS011;15334;49.494;8.410;2023-03-17T07:35:12;12.68;;;6.30;;
28009;SDS011;15334;49.494;8.410;2023-03-17T07:37:41;13.00;;;5.63;;
28009;SDS011;15334;49.494;8.410;2023-03-17T07:40:10;11.63;;;5.30;;
28009;SDS011;15334;49.494;8.410;2023-03-17T07:42:38;11.35;;;5.47;;
28009;SDS011;15334;49.494;8.410;2023-03-17T07:45:09;19.75;;;5.90;;
28009;SDS011;15334;49.494;8.410;2023-03-17T07:47:38;10.38;;;5.78;;
28009;SDS011;15334;49.494;8.410;2023-03-17T07:50:06;17.73;;;6.07;;
28009;SDS011;15334;49.494;8.410;2023-03-17T07:52:34;12.57;;;5.55;;
28009;SDS011;15334;49.494;8.410;2023-03-17T07:55:05;11.98;;;5.88;;
28009;SDS011;15334;49.494;8.410;2023-03-17T07:57:35;11.73;;;5.57;;
28009;SDS011;15334;49.494;8.410;2023-03-17T08:00:04;17.73;;;6.95;;
28009;SDS011;15334;49.494;8.410;2023-03-17T08:02:35;12.40;;;5.85;;
28009;SDS011;15334;49.494;8.410;2023-03-17T08:05:04;16.60;;;6.80;;
28009;SDS011;15334;49.494;8.410;2023-03-17T08:07:33;11.30;;;6.38;;
28009;SDS011;15334;49.494;8.410;2023-03-17T08:10:02;13.30;;;6.82;;
28009;SDS011;15334;49.494;8.410;2023-03-17T08:12:31;10.27;;;6.47;;
28009;SDS011;15334;49.494;8.410;2023-03-17T08:14:59;11.25;;;6.45;;
28009;SDS011;15334;49.494;8.410;2023-03-17T08:17:26;12.35;;;6.60;;
28009;SDS011;15334;49.494;8.410;2023-03-17T08:19:56;22.60;;;8.45;;
28009;SDS011;15334;49.494;8.410;2023-03-17T08:22:24;25.67;;;8.65;;
28009;SDS011;15334;49.494;8.410;2023-03-17T08:24:52;15.30;;;7.25;;
28009;SDS011;15334;49.494;8.410;2023-03-17T08:27:20;21.30;;;8.63;;
28009;SDS011;15334;49.494;8.410;2023-03-17T08:29:49;16.73;;;7.38;;
28009;SDS011;15334;49.494;8.410;2023-03-17T08:32:17;13.32;;;7.20;;
28009;SDS011;15334;49.494;8.410;2023-03-17T08:34:45;13.30;;;7.43;;
28009;SDS011;15334;49.494;8.410;2023-03-17T08:37:17;12.15;;;7.25;;
28009;SDS011;15334;49.494;8.410;2023-03-17T08:39:45;17.55;;;7.45;;
28009;SDS011;15334;49.494;8.410;2023-03-17T08:42:15;14.38;;;7.82;;
28009;SDS011;15334;49.494;8.410;2023-03-17T08:44:43;11.88;;;7.55;;
28009;SDS011;15334;49.494;8.410;2023-03-17T08:47:11;13.15;;;6.93;;
28009;SDS011;15334;49.494;8.410;2023-03-17T08:49:40;14.00;;;6.78;;
28009;SDS011;15334;49.494;8.410;2023-03-17T08:52:08;16.67;;;6.80;;
28009;SDS011;15334;49.494;8.410;2023-03-17T08:54:38;10.35;;;5.95;;
28009;SDS011;15334;49.494;8.410;2023-03-17T08:57:07;11.02;;;6.60;;
28009;SDS011;15334;49.494;8.410;2023-03-17T08:59:35;14.68;;;5.15;;
28009;SDS011;15334;49.494;8.410;2023-03-17T09:02:04;8.48;;;4.82;;
28009;SDS011;15334;49.494;8.410;2023-03-17T09:04:32;8.35;;;4.40;;
28009;SDS011;15334;49.494;8.410;2023-03-17T09:07:05;9.02;;;4.03;;
28009;SDS011;15334;49.494;8.410;2023-03-17T09:09:35;9.82;;;5.13;;
28009;SDS011;15334;49.494;8.410;2023-03-17T09:12:05;8.52;;;4.40;;
28009;SDS011;15334;49.494;8.410;2023-03-17T09:14:34;8.20;;;4.47;;
28009;SDS011;15334;49.494;8.410;2023-03-17T09:17:09;7.85;;;4.05;;
28009;SDS011;15334;49.494;8.410;2023-03-17T09:19:40;10.02;;;3.30;;
28009;SDS011;15334;49.494;8.410;2023-03-17T09:22:13;5.97;;;3.13;;
28009;SDS011;15334;49.494;8.410;2023-03-17T09:24:52;6.82;;;3.75;;
28009;SDS011;15334;49.494;8.410;2023-03-17T09:27:30;9.82;;;3.65;;
28009;SDS011;15334;49.494;8.410;2023-03-17T09:31:46;7.85;;;4.85;;
28009;SDS011;15334;49.494;8.410;2023-03-17T09:37:20;5.93;;;3.22;;
28009;SDS011;15334;49.494;8.410;2023-03-17T09:40:26;9.98;;;4.63;;
28009;SDS011;15334;49.494;8.410;2023-03-17T09:43:14;6.28;;;3.10;;
28009;SDS011;15334;49.494;8.410;2023-03-17T09:46:06;6.68;;;3.20;;
28009;SDS011;15334;49.494;8.410;2023-03-17T09:49:47;8.73;;;2.80;;
28009;SDS011;15334;49.494;8.410;2023-03-17T09:53:16;8.52;;;3.15;;
28009;SDS011;15334;49.494;8.410;2023-03-17T09:57:13;5.47;;;2.80;;
28009;SDS011;15334;49.494;8.410;2023-03-17T10:16:17;5.25;;;2.63;;
28009;SDS011;15334;49.494;8.410;2023-03-17T10:18:49;10.45;;;3.00;;
28009;SDS011;15334;49.494;8.410;2023-03-17T10:21:23;5.70;;;2.28;;
28009;SDS011;15334;49.494;8.410;2023-03-17T10:23:56;6.40;;;2.35;;
28009;SDS011;15334;49.494;8.410;2023-03-17T10:26:25;4.30;;;2.38;;
28009;SDS011;15334;49.494;8.410;2023-03-17T10:28:58;4.88;;;2.70;;
28009;SDS011;15334;49.494;8.410;2023-03-17T10:31:30;4.80;;;1.98;;
28009;SDS011;15334;49.494;8.410;2023-03-17T10:34:03;5.32;;;2.30;;
28009;SDS011;15334;49.494;8.410;2023-03-17T10:36:39;4.05;;;1.67;;
28009;SDS011;15334;49.494;8.410;2023-03-17T10:39:12;7.60;;;2.47;;
28009;SDS011;15334;49.494;8.410;2023-03-17T10:41:51;4.75;;;2.28;;
28009;SDS011;15334;49.494;8.410;2023-03-17T10:44:28;6.25;;;2.58;;
28009;SDS011;15334;49.494;8.410;2023-03-17T10:47:17;5.32;;;2.35;;
28009;SDS011;15334;49.494;8.410;2023-03-17T10:49:49;5.13;;;2.60;;
28009;SDS011;15334;49.494;8.410;2023-03-17T10:52:20;5.22;;;2.58;;
28009;SDS011;15334;49.494;8.410;2023-03-17T10:54:51;6.80;;;3.42;;
28009;SDS011;15334;49.494;8.410;2023-03-17T10:57:19;6.40;;;2.90;;
28009;SDS011;15334;49.494;8.410;2023-03-17T10:59:49;4.60;;;2.30;;
28009;SDS011;15334;49.494;8.410;2023-03-17T11:02:20;5.22;;;2.80;;
28009;SDS011;15334;49.494;8.410;2023-03-17T11:04:58;6.35;;;3.10;;
28009;SDS011;15334;49.494;8.410;2023-03-17T11:07:33;6.05;;;2.67;;
28009;SDS011;15334;49.494;8.410;2023-03-17T11:10:13;7.40;;;3.00;;
28009;SDS011;15334;49.494;8.410;2023-03-17T11:12:46;7.28;;;3.13;;
28009;SDS011;15334;49.494;8.410;2023-03-17T11:15:19;7.28;;;3.60;;
28009;SDS011;15334;49.494;8.410;2023-03-17T11:17:57;5.95;;;3.13;;
28009;SDS011;15334;49.494;8.410;2023-03-17T11:20:31;7.30;;;3.45;;
28009;SDS011;15334;49.494;8.410;2023-03-17T11:23:09;7.30;;;2.85;;
28009;SDS011;15334;49.494;8.410;2023-03-17T11:25:52;7.90;;;3.45;;
28009;SDS011;15334;49.494;8.410;2023-03-17T11:28:27;7.30;;;3.38;;
28009;SDS011;15334;49.494;8.410;2023-03-17T11:31:01;7.70;;;3.22;;
28009;SDS011;15334;49.494;8.410;2023-03-17T11:33:40;6.40;;;3.00;;
28009;SDS011;15334;49.494;8.410;2023-03-17T11:36:18;7.68;;;4.00;;
28009;SDS011;15334;49.494;8.410;2023-03-17T11:38:59;7.25;;;3.60;;
28009;SDS011;15334;49.494;8.410;2023-03-17T11:41:38;9.60;;;4.72;;
28009;SDS011;15334;49.494;8.410;2023-03-17T11:44:35;8.52;;;3.47;;
28009;SDS011;15334;49.494;8.410;2023-03-17T11:47:20;7.85;;;3.70;;
28009;SDS011;15334;49.494;8.410;2023-03-17T11:50:17;8.07;;;4.40;;
28009;SDS011;15334;49.494;8.410;2023-03-17T11:52:59;9.15;;;4.00;;
28009;SDS011;15334;49.494;8.410;2023-03-17T11:55:38;8.05;;;3.80;;
28009;SDS011;15334;49.494;8.410;2023-03-17T11:58:17;11.65;;;3.60;;
28009;SDS011;15334;49.494;8.410;2023-03-17T12:00:55;7.32;;;3.38;;
28009;SDS011;15334;49.494;8.410;2023-03-17T12:03:29;7.93;;;3.58;;
28009;SDS011;15334;49.494;8.410;2023-03-17T12:06:12;8.55;;;3.67;;
28009;SDS011;15334;49.494;8.410;2023-03-17T12:08:47;5.53;;;3.03;;
28009;SDS011;15334;49.494;8.410;2023-03-17T12:11:22;8.90;;;3.22;;
28009;SDS011;15334;49.494;8.410;2023-03-17T12:13:55;5.78;;;3.17;;
28009;SDS011;15334;49.494;8.410;2023-03-17T12:16:29;6.90;;;3.95;;
28009;SDS011;15334;49.494;8.410;2023-03-17T12:19:05;6.18;;;3.25;;
28009;SDS011;15334;49.494;8.410;2023-03-17T12:21:40;7.18;;;3.58;;
28009;SDS011;15334;49.494;8.410;2023-03-17T12:24:17;9.68;;;4.15;;
28009;SDS011;15334;49.494;8.410;2023-03-17T12:26:53;7.90;;;3.47;;
28009;SDS011;15334;49.494;8.410;2023-03-17T12:29:29;7.45;;;3.10;;
28009;SDS011;15334;49.494;8.410;2023-03-17T12:32:08;9.73;;;3.95;;
28009;SDS011;15334;49.494;8.410;2023-03-17T12:34:44;8.00;;;3.38;;
28009;SDS011;15334;49.494;8.410;2023-03-17T12:37:20;6.05;;;2.85;;
28009;SDS011;15334;49.494;8.410;2023-03-17T12:39:52;6.35;;;3.10;;
28009;SDS011;15334;49.494;8.410;2023-03-17T12:42:33;9.10;;;2.83;;
28009;SDS011;15334;49.494;8.410;2023-03-17T12:45:21;6.47;;;3.03;;
28009;SDS011;15334;49.494;8.410;2023-03-17T12:48:10;8.20;;;3.22;;
28009;SDS011;15334;49.494;8.410;2023-03-17T12:53:57;6.20;;;2.95;;
28009;SDS011;15334;49.494;8.410;2023-03-17T12:56:29;8.73;;;3.08;;
28009;SDS011;15334;49.494;8.410;2023-03-17T12:59:00;7.43;;;2.85;;
28009;SDS011;15334;49.494;8.410;2023-03-17T13:01:32;7.63;;;3.80;;
28009;SDS011;15334;49.494;8.410;2023-03-17T13:04:13;10.55;;;3.05;;
28009;SDS011;15334;49.494;8.410;2023-03-17T13:06:45;6.25;;;3.20;;
28009;SDS011;15334;49.494;8.410;2023-03-17T13:09:28;8.85;;;3.38;;
28009;SDS011;15334;49.494;8.410;2023-03-17T13:12:03;6.32;;;2.95;;
28009;SDS011;15334;49.494;8.410;2023-03-17T13:14:38;6.72;;;3.22;;
28009;SDS011;15334;49.494;8.410;2023-03-17T13:17:32;7.13;;;3.28;;
28009;SDS011;15334;49.494;8.410;2023-03-17T13:20:11;9.02;;;4.22;;
28009;SDS011;15334;49.494;8.410;2023-03-17T13:28:11;8.57;;;3.10;;
28009;SDS011;15334;49.494;8.410;2023-03-17T13:30:53;8.43;;;3.35;;
28009;SDS011;15334;49.494;8.410;2023-03-17T13:33:30;9.55;;;3.53;;
28009;SDS011;15334;49.494;8.410;2023-03-17T13:36:03;6.32;;;3.03;;
28009;SDS011;15334;49.494;8.410;2023-03-17T13:38:51;7.70;;;3.67;;
28009;SDS011;15334;49.494;8.410;2023-03-17T13:41:53;10.98;;;3.00;;
28009;SDS011;15334;49.494;8.410;2023-03-17T13:44:52;6.38;;;3.13;;
28009;SDS011;15334;49.494;8.410;2023-03-17T13:47:35;7.03;;;3.33;;
28009;SDS011;15334;49.494;8.410;2023-03-17T13:50:12;9.07;;;4.10;;
28009;SDS011;15334;49.494;8.410;2023-03-17T13:52:45;6.63;;;3.13;;
28009;SDS011;15334;49.494;8.410;2023-03-17T13:55:31;9.48;;;3.35;;
28009;SDS011;15334;49.494;8.410;2023-03-17T13:58:16;7.88;;;3.50;;
28009;SDS011;15334;49.494;8.410;2023-03-17T14:00:53;10.38;;;3.50;;
28009;SDS011;15334;49.494;8.410;2023-03-17T14:03:28;9.27;;;3.78;;
28009;SDS011;15334;49.494;8.410;2023-03-17T14:06:07;10.23;;;4.07;;
28009;SDS011;15334;49.494;8.410;2023-03-17T14:08:40;8.60;;;3.40;;
28009;SDS011;15334;49.494;8.410;2023-03-17T14:11:20;11.13;;;3.38;;
28009;SDS011;15334;49.494;8.410;2023-03-17T14:13:56;10.07;;;3.70;;
28009;SDS011;15334;49.494;8.410;2023-03-17T14:16:46;7.60;;;3.40;;
28009;SDS011;15334;49.494;8.410;2023-03-17T14:19:21;8.40;;;3.33;;
28009;SDS011;15334;49.494;8.410;2023-03-17T14:21:53;9.05;;;3.42;;
28009;SDS011;15334;49.494;8.410;2023-03-17T14:24:22;9.43;;;3.67;;
28009;SDS011;15334;49.494;8.410;2023-03-17T14:26:53;8.80;;;3.63;;
28009;SDS011;15334;49.494;8.410;2023-03-17T14:29:24;6.38;;;3.10;;
28009;SDS011;15334;49.494;8.410;2023-03-17T14:31:59;8.25;;;3.60;;
28009;SDS011;15334;49.494;8.410;2023-03-17T14:34:30;8.90;;;3.95;;
28009;SDS011;15334;49.494;8.410;2023-03-17T14:37:01;9.02;;;4.40;;
28009;SDS011;15334;49.494;8.410;2023-03-17T14:39:30;9.27;;;3.60;;
28009;SDS011;15334;49.494;8.410;2023-03-17T14:41:59;8.65;;;4.03;;
28009;SDS011;15334;49.494;8.410;2023-03-17T14:44:39;7.10;;;3.95;;
28009;SDS011;15334;49.494;8.410;2023-03-17T14:47:12;6.75;;;3.20;;
28009;SDS011;15334;49.494;8.410;2023-03-17T14:49:45;8.93;;;3.30;;
28009;SDS011;15334;49.494;8.410;2023-03-17T14:52:17;9.43;;;3.92;;
28009;SDS011;15334;49.494;8.410;2023-03-17T14:54:48;7.63;;;3.42;;
28009;SDS011;15334;49.494;8.410;2023-03-17T14:57:20;8.90;;;3.60;;
28009;SDS011;15334;49.494;8.410;2023-03-17T14:59:57;7.80;;;4.07;;
28009;SDS011;15334;49.494;8.410;2023-03-17T15:02:27;11.23;;;4.05;;
28009;SDS011;15334;49.494;8.410;2023-03-17T15:05:01;10.82;;;3.55;;
28009;SDS011;15334;49.494;8.410;2023-03-17T15:07:37;7.07;;;3.47;;
28009;SDS011;15334;49.494;8.410;2023-03-17T15:10:13;9.55;;;3.58;;
28009;SDS011;15334;49.494;8.410;2023-03-17T15:12:43;7.75;;;3.28;;
28009;SDS011;15334;49.494;8.410;2023-03-17T15:15:19;7.57;;;3.08;;
28009;SDS011;15334;49.494;8.410;2023-03-17T15:17:53;7.05;;;3.03;;
28009;SDS011;15334;49.494;8.410;2023-03-17T15:20:23;8.60;;;3.58;;
28009;SDS011;15334;49.494;8.410;2023-03-17T15:22:56;6.75;;;3.20;;
28009;SDS011;15334;49.494;8.410;2023-03-17T15:25:31;7.03;;;3.25;;
28009;SDS011;15334;49.494;8.410;2023-03-17T15:28:10;8.73;;;3.55;;
28009;SDS011;15334;49.494;8.410;2023-03-17T15:30:39;7.10;;;3.28;;
28009;SDS011;15334;49.494;8.410;2023-03-17T15:33:16;6.57;;;2.92;;
28009;SDS011;15334;49.494;8.410;2023-03-17T15:35:49;6.80;;;2.83;;
28009;SDS011;15334;49.494;8.410;2023-03-17T15:38:19;6.90;;;3.22;;
28009;SDS011;15334;49.494;8.410;2023-03-17T15:40:47;9.60;;;3.53;;
28009;SDS011;15334;49.494;8.410;2023-03-17T15:43:16;7.57;;;3.72;;
28009;SDS011;15334;49.494;8.410;2023-03-17T15:45:46;8.25;;;3.67;;
28009;SDS011;15334;49.494;8.410;2023-03-17T15:48:20;9.82;;;3.80;;